createdAt,value
2022-11-10T00:00:25.408Z,1.60
2022-11-10T00:02:53.423Z,1.73
2022-11-10T00:05:21.653Z,1.83
2022-11-10T00:07:49.603Z,1.67
2022-11-10T00:10:18.267Z,1.85
2022-11-10T00:12:47.620Z,1.33
2022-11-10T00:15:33.405Z,1.30
2022-11-10T00:18:03.039Z,1.85
2022-11-10T00:20:31.163Z,1.52
2022-11-10T00:22:59.181Z,1.52
2022-11-10T00:25:28.827Z,2.28
2022-11-10T00:27:59.913Z,1.30
2022-11-10T00:30:28.217Z,1.73
2022-11-10T00:32:56.127Z,1.73
2022-11-10T00:35:24.101Z,2.05
2022-11-10T00:37:52.367Z,2.10
2022-11-10T00:40:20.271Z,1.95
2022-11-10T00:42:48.209Z,1.60
2022-11-10T00:45:17.824Z,1.77
2022-11-10T00:47:46.889Z,1.63
2022-11-10T00:50:15.356Z,1.65
2022-11-10T00:52:43.261Z,1.80
2022-11-10T00:55:11.170Z,1.80
2022-11-10T00:57:39.080Z,1.90
2022-11-10T01:00:09.480Z,1.77
2022-11-10T01:02:38.895Z,1.83
2022-11-10T01:05:07.923Z,1.85
2022-11-10T01:07:35.872Z,2.00
2022-11-10T01:10:04.313Z,1.80
2022-11-10T01:12:33.023Z,1.80
2022-11-10T01:15:00.976Z,1.83
2022-11-10T01:17:30.988Z,2.28
2022-11-10T01:20:00.229Z,1.63
2022-11-10T01:22:28.130Z,1.85
2022-11-10T01:24:56.156Z,2.22
2022-11-10T01:27:24.103Z,2.00
2022-11-10T01:29:52.068Z,2.00
2022-11-10T01:32:19.992Z,1.83
2022-11-10T01:34:47.877Z,1.85
2022-11-10T01:37:17.100Z,1.67
2022-11-10T01:39:45.054Z,2.22
2022-11-10T01:42:13.002Z,1.90
2022-11-10T01:44:42.862Z,1.85
2022-11-10T01:47:11.833Z,1.98
2022-11-10T01:49:39.839Z,1.85
2022-11-10T01:52:13.650Z,2.47
2022-11-10T01:54:49.753Z,2.20
2022-11-10T01:57:18.467Z,2.22
2022-11-10T01:59:49.990Z,2.20
2022-11-10T02:02:27.808Z,2.35
2022-11-10T02:04:56.824Z,1.63
2022-11-10T02:07:25.484Z,1.60
2022-11-10T02:09:55.576Z,2.00
2022-11-10T02:12:36.894Z,2.10
2022-11-10T02:15:06.184Z,2.08
2022-11-10T02:17:35.044Z,1.77
2022-11-10T02:20:07.634Z,1.98
2022-11-10T02:22:38.002Z,1.92
2022-11-10T02:25:08.160Z,1.70
2022-11-10T02:27:36.078Z,2.20
2022-11-10T02:30:04.987Z,1.90
2022-11-10T02:32:33.097Z,2.30
2022-11-10T02:35:00.973Z,1.90
2022-11-10T02:37:28.964Z,1.80
2022-11-10T02:39:58.191Z,2.10
2022-11-10T02:42:26.091Z,2.03
2022-11-10T02:44:57.741Z,2.40
2022-11-10T02:47:25.651Z,2.33
2022-11-10T02:49:53.507Z,2.95
2022-11-10T02:52:21.392Z,1.92
2022-11-10T02:54:49.400Z,1.90
2022-11-10T02:57:18.617Z,2.53
2022-11-10T02:59:46.537Z,2.65
2022-11-10T03:02:15.268Z,2.42
2022-11-10T03:04:43.728Z,2.40
2022-11-10T03:07:11.715Z,2.20
2022-11-10T03:09:39.631Z,2.55
2022-11-10T03:12:08.002Z,2.22
2022-11-10T03:14:37.192Z,2.30
2022-11-10T03:17:05.612Z,2.13
2022-11-10T03:19:33.648Z,2.67
2022-11-10T03:22:02.624Z,2.45
2022-11-10T03:24:30.568Z,2.40
2022-11-10T03:26:58.632Z,2.08
2022-11-10T03:29:26.752Z,2.50
2022-11-10T03:31:56.976Z,2.30
2022-11-10T03:34:29.340Z,2.20
2022-11-10T03:36:59.521Z,2.33
2022-11-10T03:39:27.492Z,2.08
2022-11-10T03:41:55.361Z,2.47
2022-11-10T03:44:23.223Z,2.13
2022-11-10T03:46:51.862Z,2.13
2022-11-10T03:49:21.223Z,2.35
2022-11-10T03:51:49.179Z,2.33
2022-11-10T03:54:17.064Z,2.20
2022-11-10T03:56:44.942Z,1.98
2022-11-10T03:59:12.818Z,2.35
2022-11-10T04:01:40.838Z,1.90
2022-11-10T04:04:29.417Z,1.80
2022-11-10T04:07:16.433Z,2.45
2022-11-10T04:09:44.327Z,2.10
2022-11-10T04:12:29.969Z,1.98
2022-11-10T04:15:15.447Z,2.17
2022-11-10T04:17:49.654Z,2.20
2022-11-10T04:20:17.781Z,2.20
2022-11-10T04:23:04.713Z,2.28
2022-11-10T04:25:53.198Z,2.28
2022-11-10T04:28:21.089Z,1.98
2022-11-10T04:30:49.014Z,2.50
2022-11-10T04:33:16.957Z,2.45
2022-11-10T04:35:44.871Z,2.40
2022-11-10T04:38:14.136Z,1.98
2022-11-10T04:40:42.033Z,2.08
2022-11-10T04:43:09.960Z,2.03
2022-11-10T04:45:37.869Z,2.10
2022-11-10T04:48:06.321Z,2.20
2022-11-10T04:50:35.182Z,2.50
2022-11-10T04:53:03.138Z,1.88
2022-11-10T04:55:32.400Z,2.20
2022-11-10T04:58:00.325Z,1.90
2022-11-10T05:00:28.313Z,2.55
2022-11-10T05:02:56.266Z,2.03
2022-11-10T05:05:24.158Z,2.13
2022-11-10T05:07:52.148Z,2.25
2022-11-10T05:10:20.349Z,2.05
2022-11-10T05:12:49.574Z,2.38
2022-11-10T05:15:17.675Z,1.98
2022-11-10T05:17:49.953Z,1.85
2022-11-10T05:20:18.821Z,2.00
2022-11-10T05:23:08.110Z,2.30
2022-11-10T05:25:38.439Z,2.00
2022-11-10T05:28:11.978Z,2.33
2022-11-10T05:30:41.140Z,2.25
2022-11-10T05:33:09.789Z,2.10
2022-11-10T05:35:38.311Z,2.00
2022-11-10T05:38:07.433Z,1.75
2022-11-10T05:40:35.912Z,1.90
2022-11-10T05:43:03.800Z,2.20
2022-11-10T05:45:33.194Z,2.10
2022-11-10T05:48:01.056Z,2.00
2022-11-10T05:50:29.012Z,2.35
2022-11-10T05:52:57.350Z,2.15
2022-11-10T05:55:31.213Z,2.00
2022-11-10T05:57:59.581Z,2.10
2022-11-10T06:00:33.429Z,1.92
2022-11-10T06:03:04.153Z,2.30
2022-11-10T06:05:35.928Z,2.05
2022-11-10T06:08:05.852Z,2.33
2022-11-10T06:10:35.160Z,2.53
2022-11-10T06:13:03.697Z,2.42
2022-11-10T06:15:33.698Z,2.50
2022-11-10T06:18:02.082Z,2.80
2022-11-10T06:20:30.171Z,2.38
2022-11-10T06:23:00.934Z,2.55
2022-11-10T06:25:30.331Z,1.92
2022-11-10T06:27:58.856Z,2.10
2022-11-10T06:30:27.841Z,2.22
2022-11-10T06:32:57.483Z,2.33
2022-11-10T06:35:27.272Z,2.60
2022-11-10T06:38:01.505Z,2.42
2022-11-10T06:40:30.903Z,2.78
2022-11-10T06:42:59.689Z,2.53
2022-11-10T06:45:28.942Z,2.50
2022-11-10T06:48:07.770Z,2.70
2022-11-10T06:50:36.136Z,2.33
2022-11-10T06:53:05.039Z,2.45
2022-11-10T06:55:33.381Z,1.95
2022-11-10T06:58:01.728Z,2.50
2022-11-10T07:00:30.801Z,2.42
2022-11-10T07:03:06.677Z,2.50
2022-11-10T07:05:35.979Z,1.98
2022-11-10T07:08:05.771Z,2.28
2022-11-10T07:10:34.933Z,2.10
2022-11-10T07:13:05.832Z,1.95
2022-11-10T07:15:34.416Z,2.10
2022-11-10T07:18:05.032Z,2.22
2022-11-10T07:20:33.504Z,2.42
2022-11-10T07:23:03.785Z,2.65
2022-11-10T07:25:35.457Z,2.08
2022-11-10T07:28:07.501Z,2.03
2022-11-10T07:30:36.743Z,1.73
2022-11-10T07:33:10.145Z,1.80
2022-11-10T07:35:38.420Z,2.28
2022-11-10T07:38:09.355Z,1.73
2022-11-10T07:40:38.393Z,2.13
2022-11-10T07:43:06.658Z,1.90
2022-11-10T07:45:35.082Z,1.88
2022-11-10T07:48:06.674Z,2.08
2022-11-10T07:50:35.139Z,1.83
2022-11-10T07:53:08.197Z,2.17
2022-11-10T07:55:38.492Z,1.75
2022-11-10T07:58:06.995Z,2.25
2022-11-10T08:00:36.065Z,2.08
2022-11-10T08:03:07.957Z,2.15
2022-11-10T08:05:36.682Z,2.38
2022-11-10T08:08:05.538Z,2.05
2022-11-10T08:10:34.591Z,2.20
2022-11-10T08:13:04.495Z,1.85
2022-11-10T08:15:35.239Z,2.03
2022-11-10T08:18:07.038Z,2.00
2022-11-10T08:20:35.664Z,2.80
2022-11-10T08:23:07.613Z,2.80
2022-11-10T08:25:37.774Z,2.28
2022-11-10T08:28:08.915Z,2.20
2022-11-10T08:30:39.806Z,1.90
2022-11-10T08:33:12.025Z,2.13
2022-11-10T08:35:44.215Z,1.95
2022-11-10T08:38:15.160Z,2.35
2022-11-10T08:40:44.122Z,2.13
2022-11-10T08:43:13.560Z,2.20
2022-11-10T08:45:44.093Z,2.13
2022-11-10T08:48:15.940Z,1.98
2022-11-10T08:50:44.868Z,1.98
2022-11-10T08:53:15.431Z,1.63
2022-11-10T08:55:44.888Z,1.90
2022-11-10T08:58:15.174Z,2.33
2022-11-10T09:00:43.305Z,2.00
2022-11-10T09:03:16.885Z,1.80
2022-11-10T09:05:45.318Z,2.28
2022-11-10T09:08:14.072Z,2.30
2022-11-10T09:10:47.242Z,1.65
2022-11-10T09:13:16.553Z,2.00
2022-11-10T09:15:45.948Z,2.03
2022-11-10T09:18:17.171Z,2.30
2022-11-10T09:20:45.114Z,1.73
2022-11-10T09:23:15.937Z,2.25
2022-11-10T09:25:52.018Z,2.35
2022-11-10T09:28:21.614Z,2.38
2022-11-10T09:30:52.439Z,1.92
2022-11-10T09:33:22.197Z,1.73
2022-11-10T09:35:50.822Z,1.58
2022-11-10T09:38:18.895Z,1.92
2022-11-10T09:41:02.568Z,1.98
2022-11-10T09:43:38.590Z,1.75
2022-11-10T09:46:17.860Z,2.10
2022-11-10T09:48:54.089Z,1.75
2022-11-10T09:51:27.574Z,2.22
2022-11-10T09:53:59.752Z,1.60
2022-11-10T09:56:34.121Z,2.05
2022-11-10T09:59:07.733Z,1.60
2022-11-10T10:01:48.165Z,2.05
2022-11-10T10:04:51.832Z,1.73
2022-11-10T10:07:28.359Z,1.65
2022-11-10T10:10:05.513Z,1.65
2022-11-10T10:12:58.079Z,1.67
2022-11-10T10:15:39.207Z,1.52
2022-11-10T10:18:26.274Z,1.90
2022-11-10T10:21:21.039Z,1.80
2022-11-10T10:24:09.580Z,2.05
2022-11-10T10:26:45.914Z,1.65
2022-11-10T10:29:21.905Z,2.22
2022-11-10T10:31:52.388Z,1.55
2022-11-10T10:34:25.021Z,1.58
2022-11-10T10:36:54.290Z,1.95
2022-11-10T10:39:31.190Z,1.75
2022-11-10T10:41:59.515Z,1.70
2022-11-10T10:44:27.587Z,1.70
2022-11-10T10:47:00.003Z,2.25
2022-11-10T10:49:31.207Z,1.65
2022-11-10T10:52:13.231Z,1.67
2022-11-10T10:54:42.042Z,1.77
2022-11-10T10:57:24.503Z,1.98
2022-11-10T10:59:53.435Z,1.35
2022-11-10T11:02:30.646Z,1.77
2022-11-10T11:05:15.925Z,1.98
2022-11-10T11:07:56.407Z,1.83
2022-11-10T11:10:28.176Z,1.95
2022-11-10T11:12:56.135Z,1.90
2022-11-10T11:15:29.106Z,1.77
2022-11-10T11:17:59.625Z,1.45
2022-11-10T11:20:42.875Z,1.70
2022-11-10T11:23:39.062Z,1.23
2022-11-10T11:26:18.781Z,1.60
2022-11-10T11:29:03.377Z,1.42
2022-11-10T11:31:45.686Z,2.20
2022-11-10T11:34:22.157Z,2.10
2022-11-10T11:37:09.875Z,1.65
2022-11-10T11:39:57.142Z,1.88
2022-11-10T11:42:45.594Z,1.67
2022-11-10T11:45:24.945Z,1.65
2022-11-10T11:48:38.787Z,1.63
2022-11-10T11:51:18.777Z,1.88
2022-11-10T11:54:17.624Z,1.70
2022-11-10T11:56:50.876Z,1.55
2022-11-10T11:59:40.604Z,2.10
2022-11-10T12:02:52.694Z,1.60
2022-11-10T12:05:50.493Z,1.42
2022-11-10T12:08:32.737Z,2.15
2022-11-10T12:11:12.510Z,1.33
2022-11-10T12:13:58.348Z,1.48
2022-11-10T12:16:31.559Z,1.42
2022-11-10T12:19:20.237Z,1.15
2022-11-10T12:21:55.092Z,1.70
2022-11-10T12:24:50.761Z,1.80
2022-11-10T12:27:25.949Z,1.60
2022-11-10T12:30:02.151Z,1.60
2022-11-10T12:32:39.696Z,1.80
2022-11-10T12:35:15.807Z,1.85
2022-11-10T12:37:51.405Z,1.50
2022-11-10T12:40:23.696Z,1.88
2022-11-10T12:43:00.865Z,1.77
2022-11-10T12:45:37.640Z,1.90
2022-11-10T12:48:07.455Z,1.95
2022-11-10T12:50:53.739Z,1.42
2022-11-10T12:53:25.829Z,1.45
2022-11-10T12:55:59.196Z,1.88
2022-11-10T12:58:28.164Z,1.60
2022-11-10T13:01:01.627Z,1.90
2022-11-10T13:03:33.104Z,1.70
2022-11-10T13:06:03.919Z,1.70
2022-11-10T13:08:39.052Z,1.73
2022-11-10T13:11:24.119Z,1.58
2022-11-10T13:13:59.744Z,1.65
2022-11-10T13:16:53.879Z,1.70
2022-11-10T13:19:51.849Z,1.38
2022-11-10T13:22:40.579Z,1.60
2022-11-10T13:25:57.603Z,1.52
2022-11-10T13:28:58.496Z,1.50
2022-11-10T13:31:53.541Z,1.30
2022-11-10T13:34:35.558Z,1.33
2022-11-10T13:37:43.084Z,1.55
2022-11-10T13:40:44.485Z,1.30
2022-11-10T13:43:28.679Z,1.73
2022-11-10T13:46:06.460Z,1.30
2022-11-10T13:49:05.911Z,1.55
2022-11-10T13:51:44.490Z,1.50
2022-11-10T13:54:45.189Z,1.20
2022-11-10T13:57:30.035Z,1.65
2022-11-10T14:00:01.857Z,1.40
2022-11-10T14:03:02.017Z,1.27
2022-11-10T14:06:09.561Z,1.52
2022-11-10T14:08:45.796Z,1.48
2022-11-10T14:11:30.595Z,1.05
2022-11-10T14:14:05.841Z,1.50
2022-11-10T14:16:41.797Z,1.23
2022-11-10T14:19:30.596Z,1.35
2022-11-10T14:22:08.452Z,1.40
2022-11-10T14:24:46.209Z,1.33
2022-11-10T14:27:21.973Z,1.30
2022-11-10T14:29:50.666Z,1.17
2022-11-10T14:32:26.102Z,1.05
2022-11-10T14:34:56.202Z,1.13
2022-11-10T14:37:32.049Z,1.10
2022-11-10T14:40:47.665Z,1.35
2022-11-10T14:43:42.421Z,1.33
2022-11-10T14:46:18.073Z,1.38
2022-11-10T14:48:57.323Z,1.25
2022-11-10T14:51:26.800Z,1.00
2022-11-10T14:53:58.515Z,1.30
2022-11-10T14:56:31.274Z,1.35
2022-11-10T14:59:02.686Z,1.20
2022-11-10T15:01:35.415Z,1.30
2022-11-10T15:04:06.129Z,1.13
2022-11-10T15:06:35.173Z,1.15
2022-11-10T15:09:16.052Z,1.30
2022-11-10T15:11:51.824Z,1.15
2022-11-10T15:14:38.192Z,1.15
2022-11-10T15:17:09.437Z,1.10
2022-11-10T15:19:40.406Z,1.80
2022-11-10T15:22:18.609Z,1.17
2022-11-10T15:24:52.523Z,1.00
2022-11-10T15:27:26.888Z,1.05
2022-11-10T15:29:56.926Z,1.05
2022-11-10T15:32:32.265Z,0.90
2022-11-10T15:35:11.784Z,1.00
2022-11-10T15:37:39.740Z,1.33
2022-11-10T15:40:33.383Z,0.93
2022-11-10T15:43:27.774Z,1.52
2022-11-10T15:46:00.407Z,2.33
2022-11-10T15:48:38.080Z,2.72
2022-11-10T15:51:07.401Z,1.63
2022-11-10T15:53:40.019Z,1.83
2022-11-10T15:56:14.331Z,1.40
2022-11-10T15:58:42.656Z,1.02
2022-11-10T16:01:13.202Z,1.27
2022-11-10T16:03:41.569Z,1.83
2022-11-10T16:06:14.490Z,1.20
2022-11-10T16:08:42.933Z,1.27
2022-11-10T16:11:19.130Z,1.70
2022-11-10T16:13:49.015Z,1.35
2022-11-10T16:16:19.192Z,1.35
2022-11-10T16:18:47.711Z,1.00
2022-11-10T16:21:19.272Z,1.40
2022-11-10T16:23:48.077Z,1.45
2022-11-10T16:26:21.127Z,1.60
2022-11-10T16:28:50.927Z,1.58
2022-11-10T16:31:22.375Z,1.30
2022-11-10T16:33:50.909Z,1.25
2022-11-10T16:36:25.971Z,1.17
2022-11-10T16:38:54.570Z,1.42
2022-11-10T16:41:24.864Z,1.25
2022-11-10T16:43:52.895Z,1.85
2022-11-10T16:46:25.293Z,1.67
2022-11-10T16:48:57.499Z,1.55
2022-11-10T16:51:31.957Z,1.50
2022-11-10T16:54:00.396Z,1.42
2022-11-10T16:56:29.826Z,1.60
2022-11-10T16:58:58.226Z,1.38
2022-11-10T17:01:30.578Z,1.75
2022-11-10T17:04:02.203Z,1.38
2022-11-10T17:06:31.367Z,1.20
2022-11-10T17:09:09.764Z,1.60
2022-11-10T17:11:39.158Z,1.60
2022-11-10T17:14:07.942Z,1.33
2022-11-10T17:16:39.751Z,1.40
2022-11-10T17:19:11.080Z,1.35
2022-11-10T17:21:40.466Z,1.55
2022-11-10T17:24:13.169Z,1.30
2022-11-10T17:26:43.526Z,1.20
2022-11-10T17:29:20.953Z,1.33
2022-11-10T17:31:50.797Z,1.60
2022-11-10T17:34:18.765Z,1.50
2022-11-10T17:36:46.902Z,1.58
2022-11-10T17:39:17.262Z,1.77
2022-11-10T17:41:51.229Z,1.58
2022-11-10T17:44:19.474Z,1.90
2022-11-10T17:46:47.514Z,1.60
2022-11-10T17:49:15.463Z,1.50
2022-11-10T17:51:44.646Z,1.77
2022-11-10T17:54:15.615Z,1.48
2022-11-10T17:56:43.747Z,1.52
2022-11-10T17:59:13.106Z,1.80
2022-11-10T18:01:41.315Z,1.85
2022-11-10T18:04:13.881Z,1.77
2022-11-10T18:06:41.925Z,2.05
2022-11-10T18:09:09.973Z,2.10
2022-11-10T18:11:38.433Z,1.52
2022-11-10T18:14:06.413Z,1.83
2022-11-10T18:16:35.800Z,1.70
2022-11-10T18:19:03.829Z,1.58
2022-11-10T18:21:31.897Z,1.30
2022-11-10T18:23:59.816Z,1.55
2022-11-10T18:26:30.376Z,1.88
2022-11-10T18:28:58.473Z,2.15
2022-11-10T18:31:26.612Z,2.30
2022-11-10T18:33:56.245Z,2.05
2022-11-10T18:36:24.318Z,1.83
2022-11-10T18:38:54.766Z,1.98
2022-11-10T18:41:40.469Z,2.03
2022-11-10T18:44:10.818Z,2.03
2022-11-10T18:46:51.779Z,2.05
2022-11-10T18:49:21.367Z,2.25
2022-11-10T18:51:49.509Z,1.90
2022-11-10T18:54:17.882Z,1.90
2022-11-10T18:56:46.037Z,1.60
2022-11-10T18:59:14.883Z,1.80
2022-11-10T19:01:43.544Z,1.73
2022-11-10T19:04:16.853Z,2.33
2022-11-10T19:06:46.456Z,1.95
2022-11-10T19:09:15.730Z,2.00
2022-11-10T19:11:56.892Z,2.10
2022-11-10T19:14:24.953Z,1.50
2022-11-10T19:16:52.953Z,1.63
2022-11-10T19:19:21.257Z,2.03
2022-11-10T19:21:50.862Z,1.60
2022-11-10T19:24:27.819Z,1.90
2022-11-10T19:27:17.002Z,1.90
2022-11-10T19:29:45.341Z,1.50
2022-11-10T19:32:13.459Z,1.92
2022-11-10T19:34:42.442Z,1.77
2022-11-10T19:37:11.802Z,1.92
2022-11-10T19:39:39.947Z,1.83
2022-11-10T19:42:10.607Z,2.10
2022-11-10T19:44:57.875Z,1.95
2022-11-10T19:47:44.986Z,1.85
2022-11-10T19:50:31.614Z,1.73
2022-11-10T19:53:19.799Z,1.63
2022-11-10T19:56:09.498Z,2.42
2022-11-10T19:58:55.938Z,1.67
2022-11-10T20:01:43.097Z,1.92
2022-11-10T20:04:30.017Z,2.20
2022-11-10T20:07:37.150Z,1.90
2022-11-10T20:10:25.347Z,2.00
2022-11-10T20:13:13.876Z,1.80
2022-11-10T20:16:00.412Z,2.22
2022-11-10T20:18:47.281Z,2.15
2022-11-10T20:21:34.091Z,2.28
2022-11-10T20:24:21.027Z,2.15
2022-11-10T20:27:09.326Z,2.00
2022-11-10T20:29:55.985Z,2.05
2022-11-10T20:32:42.746Z,2.28
2022-11-10T20:35:30.203Z,2.17
2022-11-10T20:38:17.708Z,2.13
2022-11-10T20:41:07.199Z,2.08
2022-11-10T20:43:55.948Z,2.00
2022-11-10T20:46:54.515Z,2.90
2022-11-10T20:49:41.872Z,2.40
2022-11-10T20:52:28.255Z,2.10
2022-11-10T20:55:18.233Z,2.55
2022-11-10T20:58:04.911Z,2.20
2022-11-10T21:00:52.862Z,2.40
2022-11-10T21:03:40.091Z,2.20
2022-11-10T21:06:26.914Z,2.10
2022-11-10T21:09:13.793Z,2.15
2022-11-10T21:12:17.948Z,2.00
2022-11-10T21:15:05.532Z,2.53
2022-11-10T21:17:53.422Z,2.25
2022-11-10T21:20:40.122Z,2.30
2022-11-10T21:23:28.542Z,1.80
2022-11-10T21:26:16.818Z,2.47
2022-11-10T21:29:07.552Z,2.30
2022-11-10T21:31:56.037Z,2.13
2022-11-10T21:34:44.196Z,2.35
2022-11-10T21:37:31.108Z,2.17
2022-11-10T21:40:18.207Z,2.45
2022-11-10T21:43:05.651Z,1.92
2022-11-10T21:45:57.735Z,2.08
2022-11-10T21:48:44.285Z,2.03
2022-11-10T21:51:32.487Z,2.20
2022-11-10T21:54:19.045Z,1.88
2022-11-10T21:57:07.904Z,1.88
2022-11-10T21:59:54.666Z,2.08
2022-11-10T22:02:41.399Z,2.50
2022-11-10T22:05:28.440Z,1.92
2022-11-10T22:08:21.680Z,1.80
2022-11-10T22:11:31.586Z,1.92
2022-11-10T22:14:36.208Z,1.80
2022-11-10T22:17:40.776Z,1.88
2022-11-10T22:20:27.676Z,1.85
2022-11-10T22:23:16.029Z,2.08
2022-11-10T22:26:02.486Z,1.80
2022-11-10T22:28:49.074Z,2.22
2022-11-10T22:31:35.758Z,2.28
2022-11-10T22:34:23.007Z,2.08
2022-11-10T22:37:09.439Z,2.03
2022-11-10T22:40:15.194Z,1.98
2022-11-10T22:43:21.541Z,2.22
2022-11-10T22:46:08.707Z,1.73
2022-11-10T22:48:55.293Z,2.10
2022-11-10T22:51:45.411Z,2.00
2022-11-10T22:54:31.897Z,2.05
2022-11-10T22:57:19.872Z,2.05
2022-11-10T23:00:09.083Z,1.85
2022-11-10T23:02:55.976Z,2.10
2022-11-10T23:05:42.832Z,2.58
2022-11-10T23:08:30.276Z,2.00
2022-11-10T23:11:20.924Z,2.10
2022-11-10T23:14:10.776Z,1.92
2022-11-10T23:16:57.511Z,1.90
2022-11-10T23:19:43.933Z,2.38
2022-11-10T23:22:30.454Z,2.25
2022-11-10T23:25:17.155Z,1.88
2022-11-10T23:28:03.698Z,2.00
2022-11-10T23:30:51.834Z,2.22
2022-11-10T23:33:40.958Z,2.03
2022-11-10T23:36:28.459Z,2.53
2022-11-10T23:39:14.798Z,2.00
2022-11-10T23:42:01.286Z,2.03
2022-11-10T23:44:48.132Z,2.10
2022-11-10T23:47:35.873Z,1.83
2022-11-10T23:50:22.733Z,2.35
2022-11-10T23:53:09.440Z,2.10
2022-11-10T23:56:01.504Z,1.65
2022-11-10T23:58:47.933Z,1.80
